createdAt,value
2018-12-17T00:00:52.642Z,32.85
2018-12-17T00:03:20.094Z,33.25
2018-12-17T00:05:47.556Z,33.55
2018-12-17T00:08:15.090Z,33.05
2018-12-17T00:10:42.539Z,34.18
2018-12-17T00:13:09.986Z,34.48
2018-12-17T00:15:37.434Z,33.00
2018-12-17T00:18:04.890Z,34.00
2018-12-17T00:20:32.351Z,34.55
2018-12-17T00:22:59.800Z,34.35
2018-12-17T00:25:27.238Z,35.17
2018-12-17T00:27:54.678Z,34.35
2018-12-17T00:30:22.142Z,33.45
2018-12-17T00:32:49.587Z,34.80
2018-12-17T00:35:17.027Z,34.90
2018-12-17T00:37:44.473Z,33.95
2018-12-17T00:40:12.111Z,36.00
2018-12-17T00:42:39.572Z,34.85
2018-12-17T00:45:07.098Z,33.98
2018-12-17T00:47:34.541Z,33.50
2018-12-17T00:50:01.992Z,33.98
2018-12-17T00:52:29.510Z,33.45
2018-12-17T00:54:56.956Z,33.10
2018-12-17T00:57:24.400Z,33.00
2018-12-17T00:59:51.846Z,33.15
2018-12-17T01:02:19.294Z,33.58
2018-12-17T01:04:46.729Z,34.05
2018-12-17T01:07:14.189Z,33.30
2018-12-17T01:09:41.633Z,34.85
2018-12-17T01:12:09.166Z,35.20
2018-12-17T01:14:36.611Z,34.53
2018-12-17T01:17:04.044Z,34.58
2018-12-17T01:19:31.493Z,34.95
2018-12-17T01:21:58.934Z,34.75
2018-12-17T01:24:26.378Z,36.17
2018-12-17T01:26:53.815Z,34.73
2018-12-17T01:29:21.262Z,34.88
2018-12-17T01:31:48.690Z,34.55
2018-12-17T01:34:16.122Z,33.95
2018-12-17T01:36:43.557Z,35.65
2018-12-17T01:39:10.986Z,34.98
2018-12-17T01:41:38.430Z,34.58
2018-12-17T01:44:05.891Z,34.18
2018-12-17T01:46:33.394Z,34.67
2018-12-17T01:49:00.831Z,35.47
2018-12-17T01:51:28.271Z,35.50
2018-12-17T01:53:55.706Z,35.35
2018-12-17T01:56:23.147Z,36.03
2018-12-17T01:58:50.575Z,35.28
2018-12-17T02:01:18.012Z,36.30
2018-12-17T02:03:45.450Z,35.00
2018-12-17T02:06:12.903Z,34.20
2018-12-17T02:08:40.350Z,34.73
2018-12-17T02:11:07.799Z,35.23
2018-12-17T02:13:35.251Z,36.85
2018-12-17T02:16:02.701Z,34.38
2018-12-17T02:18:30.142Z,35.28
2018-12-17T02:20:57.570Z,33.73
2018-12-17T02:23:25.005Z,35.05
2018-12-17T02:25:52.438Z,35.30
2018-12-17T02:28:19.891Z,33.38
2018-12-17T02:30:47.329Z,33.65
2018-12-17T02:33:14.757Z,34.73
2018-12-17T02:35:42.198Z,35.13
2018-12-17T02:38:09.627Z,35.90
2018-12-17T02:40:37.071Z,36.70
2018-12-17T02:43:04.556Z,36.30
2018-12-17T02:45:32.886Z,37.17
2018-12-17T02:48:00.319Z,37.40
2018-12-17T02:50:27.758Z,37.45
2018-12-17T02:52:55.198Z,35.80
2018-12-17T02:55:22.640Z,37.30
2018-12-17T02:57:50.080Z,36.90
2018-12-17T03:00:17.517Z,38.02
2018-12-17T03:02:44.954Z,37.98
2018-12-17T03:05:12.410Z,37.60
2018-12-17T03:07:39.859Z,37.25
2018-12-17T03:10:07.803Z,37.88
2018-12-17T03:12:35.914Z,41.02
2018-12-17T03:15:03.795Z,38.08
2018-12-17T03:17:31.230Z,39.40
2018-12-17T03:19:58.656Z,39.80
2018-12-17T03:22:26.103Z,40.70
2018-12-17T03:24:53.538Z,42.93
2018-12-17T03:27:20.978Z,41.18
2018-12-17T03:29:48.513Z,41.50
2018-12-17T03:32:15.956Z,41.70
2018-12-17T03:34:43.490Z,41.90
2018-12-17T03:37:11.870Z,40.55
2018-12-17T03:39:39.306Z,40.55
2018-12-17T03:42:06.759Z,38.98
2018-12-17T03:44:34.200Z,44.40
2018-12-17T03:47:01.644Z,41.98
2018-12-17T03:49:29.094Z,40.43
2018-12-17T03:51:56.547Z,45.25
2018-12-17T03:54:23.982Z,42.45
2018-12-17T03:56:51.410Z,42.55
2018-12-17T03:59:18.855Z,40.75
2018-12-17T04:01:46.303Z,42.50
2018-12-17T04:04:13.742Z,42.43
2018-12-17T04:06:41.190Z,41.98
2018-12-17T04:09:08.723Z,42.35
2018-12-17T04:11:36.170Z,42.62
2018-12-17T04:14:03.632Z,43.40
2018-12-17T04:16:31.084Z,41.20
2018-12-17T04:18:58.527Z,40.83
2018-12-17T04:21:25.959Z,43.45
2018-12-17T04:23:53.402Z,41.77
2018-12-17T04:26:20.842Z,42.03
2018-12-17T04:28:48.280Z,41.83
2018-12-17T04:31:15.706Z,40.33
2018-12-17T04:33:43.164Z,41.90
2018-12-17T04:36:10.598Z,42.23
2018-12-17T04:38:38.049Z,45.38
2018-12-17T04:41:05.507Z,42.27
2018-12-17T04:43:32.954Z,42.33
2018-12-17T04:46:00.408Z,43.28
2018-12-17T04:48:27.863Z,43.92
2018-12-17T04:50:55.315Z,42.80
2018-12-17T04:53:22.763Z,42.83
2018-12-17T04:55:50.210Z,43.87
2018-12-17T04:58:17.658Z,43.80
2018-12-17T05:00:45.098Z,43.65
2018-12-17T05:03:12.557Z,41.65
2018-12-17T05:05:39.991Z,45.92
2018-12-17T05:08:07.443Z,46.02
2018-12-17T05:10:34.886Z,43.92
2018-12-17T05:13:02.371Z,41.90
2018-12-17T05:15:29.904Z,43.10
2018-12-17T05:17:57.345Z,43.23
2018-12-17T05:20:24.803Z,49.38
2018-12-17T05:22:52.275Z,44.23
2018-12-17T05:25:19.723Z,45.00
2018-12-17T05:27:47.163Z,45.88
2018-12-17T05:30:14.620Z,45.35
2018-12-17T05:32:42.069Z,45.63
2018-12-17T05:35:09.537Z,47.20
2018-12-17T05:37:37.066Z,45.17
2018-12-17T05:40:06.316Z,44.55
2018-12-17T05:42:33.771Z,45.10
2018-12-17T05:45:01.210Z,42.10
2018-12-17T05:47:28.722Z,42.27
2018-12-17T05:49:56.179Z,42.07
2018-12-17T05:52:23.625Z,42.20
2018-12-17T05:54:51.060Z,43.50
2018-12-17T05:57:18.494Z,41.23
2018-12-17T05:59:45.939Z,43.17
2018-12-17T06:02:13.384Z,41.97
2018-12-17T06:04:40.916Z,42.40
2018-12-17T06:07:08.359Z,41.30
2018-12-17T06:09:35.891Z,43.28
2018-12-17T06:12:03.335Z,41.23
2018-12-17T06:14:30.786Z,42.10
2018-12-17T06:16:58.257Z,44.73
2018-12-17T06:19:25.694Z,42.50
2018-12-17T06:21:53.126Z,41.02
2018-12-17T06:24:20.563Z,41.95
2018-12-17T06:26:48.003Z,41.20
2018-12-17T06:29:15.463Z,42.62
2018-12-17T06:31:42.889Z,41.48
2018-12-17T06:34:10.346Z,43.83
2018-12-17T06:36:37.811Z,43.87
2018-12-17T06:39:06.266Z,43.13
2018-12-17T06:41:33.722Z,41.05
2018-12-17T06:44:01.151Z,43.60
2018-12-17T06:46:28.610Z,42.88
2018-12-17T06:48:56.055Z,43.85
2018-12-17T06:51:24.223Z,40.60
2018-12-17T06:53:51.699Z,41.58
2018-12-17T06:56:19.154Z,43.83
2018-12-17T06:58:46.636Z,41.80
2018-12-17T07:01:14.078Z,42.58
2018-12-17T07:03:41.514Z,42.90
2018-12-17T07:06:09.057Z,41.40
2018-12-17T07:08:36.575Z,38.55
2018-12-17T07:11:04.005Z,38.63
2018-12-17T07:13:31.451Z,39.05
2018-12-17T07:15:58.903Z,40.58
2018-12-17T07:18:26.361Z,39.03
2018-12-17T07:20:53.806Z,40.48
2018-12-17T07:23:21.266Z,40.63
2018-12-17T07:25:49.618Z,40.33
2018-12-17T07:28:17.074Z,41.77
2018-12-17T07:30:44.527Z,41.07
2018-12-17T07:33:11.967Z,40.83
2018-12-17T07:35:39.403Z,39.60
2018-12-17T07:38:06.842Z,40.55
2018-12-17T07:40:34.321Z,40.85
2018-12-17T07:43:01.771Z,41.10
2018-12-17T07:45:29.213Z,40.70
2018-12-17T07:47:56.702Z,39.88
2018-12-17T07:50:24.163Z,40.30
2018-12-17T07:52:51.625Z,43.55
2018-12-17T07:55:19.076Z,43.45
2018-12-17T07:57:46.532Z,43.33
2018-12-17T08:00:14.276Z,44.35
2018-12-17T08:02:41.719Z,45.50
2018-12-17T08:05:17.539Z,45.93
2018-12-17T08:07:45.687Z,43.83
2018-12-17T08:10:13.207Z,44.90
2018-12-17T08:12:40.670Z,44.73
2018-12-17T08:15:08.106Z,42.90
2018-12-17T08:17:35.560Z,44.48
2018-12-17T08:20:03.911Z,46.18
2018-12-17T08:22:31.587Z,44.00
2018-12-17T08:24:59.019Z,45.73
2018-12-17T08:27:26.451Z,45.50
2018-12-17T08:29:53.910Z,45.43
2018-12-17T08:32:21.364Z,43.87
2018-12-17T08:34:48.892Z,43.38
2018-12-17T08:37:16.355Z,40.38
2018-12-17T08:39:43.787Z,41.18
2018-12-17T08:42:11.237Z,41.63
2018-12-17T08:44:38.694Z,41.90
2018-12-17T08:47:06.182Z,40.73
2018-12-17T08:49:33.607Z,40.48
2018-12-17T08:52:01.065Z,40.00
2018-12-17T08:54:28.522Z,42.58
2018-12-17T08:56:55.986Z,40.90
2018-12-17T08:59:23.442Z,41.55
2018-12-17T09:01:50.928Z,39.27
2018-12-17T09:04:18.378Z,41.10
2018-12-17T09:06:45.842Z,40.35
2018-12-17T09:09:13.289Z,41.55
2018-12-17T09:11:40.739Z,39.38
2018-12-17T09:14:08.186Z,40.67
2018-12-17T09:16:35.627Z,40.20
2018-12-17T09:19:03.083Z,40.98
2018-12-17T09:21:30.516Z,41.00
2018-12-17T09:23:58.463Z,40.73
2018-12-17T09:26:25.907Z,39.38
2018-12-17T09:28:53.358Z,41.75
2018-12-17T09:31:20.806Z,41.60
2018-12-17T09:33:48.269Z,39.55
2018-12-17T09:36:15.717Z,40.45
2018-12-17T09:38:43.167Z,41.05
2018-12-17T09:41:11.146Z,40.75
2018-12-17T09:43:38.696Z,42.43
2018-12-17T09:46:06.143Z,42.15
2018-12-17T09:48:33.653Z,40.50
2018-12-17T09:51:01.112Z,42.70
2018-12-17T09:53:28.567Z,44.08
2018-12-17T09:55:56.017Z,43.25
2018-12-17T09:58:23.466Z,45.20
2018-12-17T10:00:50.951Z,43.63
2018-12-17T10:03:18.415Z,42.90
2018-12-17T10:05:45.850Z,42.65
2018-12-17T10:08:13.302Z,40.20
2018-12-17T10:10:40.730Z,42.37
2018-12-17T10:13:08.167Z,41.83
2018-12-17T10:15:35.615Z,42.25
2018-12-17T10:18:03.098Z,44.83
2018-12-17T10:20:30.559Z,43.30
2018-12-17T10:22:58.010Z,41.30
2018-12-17T10:25:25.454Z,43.45
2018-12-17T10:27:52.885Z,42.88
2018-12-17T10:30:20.323Z,41.25
2018-12-17T10:32:47.786Z,43.15
2018-12-17T10:35:16.050Z,40.43
2018-12-17T10:37:43.497Z,40.20
2018-12-17T10:40:11.059Z,38.90
2018-12-17T10:42:38.483Z,42.17
2018-12-17T10:45:07.427Z,38.65
2018-12-17T10:47:34.913Z,39.13
2018-12-17T10:50:02.445Z,40.48
2018-12-17T10:52:29.902Z,38.48
2018-12-17T10:54:57.356Z,40.03
2018-12-17T10:57:24.812Z,38.15
2018-12-17T10:59:52.262Z,37.28
2018-12-17T11:02:24.310Z,39.95
2018-12-17T11:04:53.670Z,42.85
2018-12-17T11:07:21.153Z,39.03
2018-12-17T11:09:48.590Z,39.60
2018-12-17T11:12:16.038Z,37.30
2018-12-17T11:14:43.502Z,37.08
2018-12-17T11:17:10.958Z,38.42
2018-12-17T11:19:38.406Z,40.75
2018-12-17T11:22:05.855Z,38.15
2018-12-17T11:24:33.316Z,39.37
2018-12-17T11:27:00.747Z,39.67
2018-12-17T11:29:28.194Z,39.18
2018-12-17T11:31:55.634Z,37.60
2018-12-17T11:34:23.091Z,38.67
2018-12-17T11:36:50.521Z,37.85
2018-12-17T11:39:17.962Z,36.63
2018-12-17T11:41:45.414Z,39.55
2018-12-17T11:44:12.861Z,43.02
2018-12-17T11:46:40.343Z,41.53
2018-12-17T11:49:07.801Z,43.63
2018-12-17T11:51:35.255Z,41.55
2018-12-17T11:54:02.721Z,41.83
2018-12-17T11:56:46.591Z,39.73
2018-12-17T11:59:14.023Z,40.00
2018-12-17T12:01:41.482Z,38.25
2018-12-17T12:04:08.930Z,37.65
2018-12-17T12:06:36.370Z,37.38
2018-12-17T12:09:04.729Z,36.85
2018-12-17T12:11:32.177Z,40.33
2018-12-17T12:13:59.622Z,39.20
2018-12-17T12:16:27.067Z,42.10
2018-12-17T12:18:54.531Z,38.25
2018-12-17T12:21:21.973Z,39.10
2018-12-17T12:23:49.430Z,38.58
2018-12-17T12:26:16.878Z,37.42
2018-12-17T12:28:44.318Z,37.05
2018-12-17T12:31:11.767Z,38.73
2018-12-17T12:33:39.214Z,38.75
2018-12-17T12:36:06.662Z,37.13
2018-12-17T12:38:34.126Z,37.25
2018-12-17T12:41:01.668Z,37.88
2018-12-17T12:43:29.130Z,38.92
2018-12-17T12:45:56.594Z,39.67
2018-12-17T12:48:24.046Z,40.35
2018-12-17T12:50:51.513Z,40.27
2018-12-17T12:53:18.954Z,42.20
2018-12-17T12:55:46.394Z,38.75
2018-12-17T12:58:13.849Z,38.15
2018-12-17T13:00:41.278Z,37.13
2018-12-17T13:03:08.830Z,38.35
2018-12-17T13:05:36.330Z,36.65
2018-12-17T13:08:04.729Z,36.63
2018-12-17T13:10:32.162Z,37.80
2018-12-17T13:12:59.611Z,37.33
2018-12-17T13:15:27.080Z,39.80
2018-12-17T13:17:54.542Z,41.05
2018-12-17T13:20:21.995Z,40.83
2018-12-17T13:22:49.443Z,40.17
2018-12-17T13:25:18.883Z,37.27
2018-12-17T13:27:46.344Z,39.30
2018-12-17T13:30:13.812Z,40.95
2018-12-17T13:32:41.264Z,38.17
2018-12-17T13:35:08.717Z,39.25
2018-12-17T13:37:36.185Z,40.20
2018-12-17T13:40:05.238Z,38.53
2018-12-17T13:42:32.692Z,39.25
2018-12-17T13:45:00.343Z,43.10
2018-12-17T13:47:27.806Z,39.23
2018-12-17T13:49:57.151Z,38.33
2018-12-17T13:52:30.519Z,38.27
2018-12-17T13:54:57.975Z,37.93
2018-12-17T13:57:25.414Z,38.50
2018-12-17T13:59:52.848Z,40.10
2018-12-17T14:02:20.296Z,39.55
2018-12-17T14:04:47.731Z,40.35
2018-12-17T14:07:15.163Z,38.55
2018-12-17T14:09:48.375Z,38.23
2018-12-17T14:12:16.674Z,39.20
2018-12-17T14:14:44.122Z,40.92
2018-12-17T14:17:17.344Z,39.08
2018-12-17T14:19:46.713Z,39.42
2018-12-17T14:22:14.158Z,40.67
2018-12-17T14:24:41.615Z,41.60
2018-12-17T14:27:09.075Z,42.27
2018-12-17T14:29:36.617Z,42.40
2018-12-17T14:32:05.253Z,41.42
2018-12-17T14:34:32.827Z,39.65
2018-12-17T14:37:00.278Z,39.23
2018-12-17T14:39:27.798Z,38.23
2018-12-17T14:41:55.250Z,40.60
2018-12-17T14:44:28.354Z,40.12
2018-12-17T14:46:59.020Z,40.60
2018-12-17T14:49:26.458Z,41.17
2018-12-17T14:51:54.015Z,40.27
2018-12-17T14:54:21.467Z,39.00
2018-12-17T14:56:48.960Z,41.17
2018-12-17T14:59:16.443Z,39.27
2018-12-17T15:01:43.994Z,38.98
2018-12-17T15:04:11.455Z,37.00
2018-12-17T15:06:38.971Z,40.57
2018-12-17T15:09:07.742Z,39.38
2018-12-17T15:11:35.204Z,39.48
2018-12-17T15:14:02.653Z,39.85
2018-12-17T15:16:30.104Z,39.20
2018-12-17T15:18:57.558Z,38.93
2018-12-17T15:21:24.996Z,38.10
2018-12-17T15:23:52.444Z,38.58
2018-12-17T15:26:20.016Z,41.40
2018-12-17T15:28:47.529Z,40.50
2018-12-17T15:31:15.035Z,40.43
2018-12-17T15:33:42.682Z,39.80
2018-12-17T15:36:10.150Z,38.75
2018-12-17T15:38:37.602Z,38.93
2018-12-17T15:41:05.062Z,38.70
2018-12-17T15:43:32.511Z,38.15
2018-12-17T15:45:59.964Z,40.03
2018-12-17T15:48:27.432Z,39.08
2018-12-17T15:50:54.871Z,40.43
2018-12-17T15:53:22.340Z,39.25
2018-12-17T15:55:49.794Z,38.02
2018-12-17T15:58:17.243Z,38.92
2018-12-17T16:00:44.691Z,40.40
2018-12-17T16:03:12.135Z,41.45
2018-12-17T16:05:39.594Z,39.03
2018-12-17T16:08:07.058Z,40.67
2018-12-17T16:10:34.508Z,38.95
2018-12-17T16:13:01.972Z,38.85
2018-12-17T16:15:29.441Z,39.20
2018-12-17T16:17:59.373Z,38.20
2018-12-17T16:20:28.843Z,40.25
2018-12-17T16:22:57.510Z,38.88
2018-12-17T16:25:25.007Z,38.70
2018-12-17T16:27:52.483Z,35.83
2018-12-17T16:30:19.926Z,37.28
2018-12-17T16:32:47.407Z,38.10
2018-12-17T16:35:14.881Z,37.42
2018-12-17T16:37:42.332Z,39.98
2018-12-17T16:40:09.803Z,38.30
2018-12-17T16:42:37.274Z,38.78
2018-12-17T16:45:05.931Z,38.73
2018-12-17T16:47:33.423Z,39.27
2018-12-17T16:50:00.892Z,37.30
2018-12-17T16:52:28.356Z,40.85
2018-12-17T16:54:55.827Z,40.55
2018-12-17T16:57:23.286Z,41.10
2018-12-17T16:59:50.828Z,39.58
2018-12-17T17:02:18.287Z,42.25
2018-12-17T17:04:45.767Z,39.00
2018-12-17T17:07:13.237Z,38.67
2018-12-17T17:09:40.679Z,40.12
2018-12-17T17:12:08.137Z,43.68
2018-12-17T17:14:35.619Z,40.90
2018-12-17T17:17:03.197Z,39.33
2018-12-17T17:19:30.640Z,39.88
2018-12-17T17:21:58.099Z,40.12
2018-12-17T17:24:25.569Z,39.95
2018-12-17T17:26:53.114Z,39.27
2018-12-17T17:29:20.594Z,40.03
2018-12-17T17:31:48.078Z,38.65
2018-12-17T17:34:15.506Z,41.77
2018-12-17T17:36:42.955Z,38.63
2018-12-17T17:39:10.484Z,40.50
2018-12-17T17:41:37.947Z,40.78
2018-12-17T17:44:05.419Z,41.50
2018-12-17T17:46:32.868Z,40.45
2018-12-17T17:49:00.303Z,40.30
2018-12-17T17:51:27.833Z,38.98
2018-12-17T17:53:56.541Z,40.65
2018-12-17T17:56:24.054Z,38.65
2018-12-17T17:58:51.648Z,40.63
2018-12-17T18:01:19.098Z,40.33
2018-12-17T18:03:46.528Z,38.45
2018-12-17T18:06:16.445Z,40.25
2018-12-17T18:08:43.464Z,39.20
2018-12-17T18:11:10.914Z,39.23
2018-12-17T18:13:38.383Z,39.60
2018-12-17T18:16:05.826Z,41.02
2018-12-17T18:18:33.921Z,40.05
2018-12-17T18:21:01.398Z,40.80
2018-12-17T18:23:28.855Z,40.20
2018-12-17T18:25:56.321Z,41.20
2018-12-17T18:28:23.766Z,40.27
2018-12-17T18:30:51.208Z,42.07
2018-12-17T18:33:18.658Z,40.60
2018-12-17T18:35:46.130Z,41.45
2018-12-17T18:38:13.620Z,40.95
2018-12-17T18:40:41.058Z,40.80
2018-12-17T18:43:08.531Z,40.78
2018-12-17T18:45:35.950Z,39.88
2018-12-17T18:48:03.724Z,39.15
2018-12-17T18:50:31.262Z,39.90
2018-12-17T18:52:58.717Z,40.33
2018-12-17T18:55:26.147Z,40.43
2018-12-17T18:57:53.599Z,41.42
2018-12-17T19:00:21.038Z,39.15
2018-12-17T19:02:48.507Z,41.33
2018-12-17T19:05:15.934Z,40.65
2018-12-17T19:07:43.374Z,40.28
2018-12-17T19:10:10.827Z,39.55
2018-12-17T19:12:38.271Z,39.78
2018-12-17T19:15:05.916Z,39.55
2018-12-17T19:17:33.383Z,40.48
2018-12-17T19:20:00.830Z,38.55
2018-12-17T19:22:28.289Z,38.05
2018-12-17T19:24:55.739Z,38.95
2018-12-17T19:27:23.203Z,39.80
2018-12-17T19:29:50.667Z,39.63
2018-12-17T19:32:18.112Z,39.53
2018-12-17T19:34:45.558Z,40.90
2018-12-17T19:37:12.982Z,41.83
2018-12-17T19:39:40.435Z,41.33
2018-12-17T19:42:07.886Z,40.55
2018-12-17T19:44:35.335Z,39.50
2018-12-17T19:47:02.787Z,41.08
2018-12-17T19:49:30.287Z,42.15
2018-12-17T19:51:57.695Z,44.05
2018-12-17T19:54:25.159Z,42.75
2018-12-17T19:56:52.679Z,38.35
2018-12-17T19:59:20.125Z,39.15
2018-12-17T20:01:47.614Z,37.70
2018-12-17T20:04:15.079Z,39.40
2018-12-17T20:06:42.531Z,37.13
2018-12-17T20:09:10.003Z,36.80
2018-12-17T20:11:37.551Z,37.25
2018-12-17T20:14:05.011Z,36.05
2018-12-17T20:16:32.473Z,34.80
2018-12-17T20:18:59.915Z,34.10
2018-12-17T20:21:27.371Z,33.75
2018-12-17T20:23:54.811Z,35.73
2018-12-17T20:26:22.239Z,35.95
2018-12-17T20:28:49.695Z,34.90
2018-12-17T20:31:17.135Z,36.13
2018-12-17T20:33:44.578Z,35.90
2018-12-17T20:36:12.046Z,35.50
2018-12-17T20:38:39.521Z,35.60
2018-12-17T20:41:06.970Z,34.83
2018-12-17T20:43:34.422Z,36.10
2018-12-17T20:46:01.878Z,36.68
2018-12-17T20:48:29.323Z,41.13
2018-12-17T20:50:56.774Z,36.60
2018-12-17T20:53:25.749Z,36.50
2018-12-17T20:55:53.202Z,36.00
2018-12-17T20:58:20.647Z,36.15
2018-12-17T21:00:48.135Z,35.33
2018-12-17T21:03:15.578Z,36.33
2018-12-17T21:05:43.033Z,36.80
2018-12-17T21:08:10.483Z,35.35
2018-12-17T21:10:37.962Z,36.55
2018-12-17T21:13:05.521Z,38.15
2018-12-17T21:15:32.980Z,36.83
2018-12-17T21:18:00.440Z,35.80
2018-12-17T21:20:27.870Z,47.15
2018-12-17T21:22:55.315Z,36.05
2018-12-17T21:25:22.754Z,36.58
2018-12-17T21:27:50.211Z,37.00
2018-12-17T21:30:17.750Z,38.30
2018-12-17T21:32:45.222Z,37.90
2018-12-17T21:35:12.674Z,36.58
2018-12-17T21:37:40.111Z,38.67
2018-12-17T21:40:07.566Z,37.23
2018-12-17T21:42:35.098Z,36.53
2018-12-17T21:45:02.639Z,36.63
2018-12-17T21:47:30.104Z,36.43
2018-12-17T21:49:57.523Z,36.73
2018-12-17T21:52:25.621Z,37.75
2018-12-17T21:54:53.129Z,36.25
2018-12-17T21:57:20.607Z,37.45
2018-12-17T21:59:48.060Z,37.33
2018-12-17T22:02:15.497Z,37.63
2018-12-17T22:04:42.946Z,37.27
2018-12-17T22:07:10.386Z,38.10
2018-12-17T22:09:37.831Z,37.83
2018-12-17T22:12:05.292Z,39.08
2018-12-17T22:14:32.731Z,39.00
2018-12-17T22:17:00.162Z,36.48
2018-12-17T22:19:27.608Z,38.23
2018-12-17T22:21:55.074Z,37.50
2018-12-17T22:24:22.595Z,39.00
2018-12-17T22:26:50.130Z,37.67
2018-12-17T22:29:17.579Z,37.45
2018-12-17T22:31:45.014Z,38.58
2018-12-17T22:34:12.458Z,37.90
2018-12-17T22:36:39.906Z,36.40
2018-12-17T22:39:07.342Z,37.63
2018-12-17T22:41:34.786Z,37.63
2018-12-17T22:44:02.246Z,38.53
2018-12-17T22:46:29.694Z,36.70
2018-12-17T22:48:57.145Z,39.78
2018-12-17T22:51:24.588Z,40.38
2018-12-17T22:53:52.031Z,40.93
2018-12-17T22:56:19.462Z,38.95
2018-12-17T22:58:46.911Z,38.60
2018-12-17T23:01:14.433Z,39.00
2018-12-17T23:03:41.870Z,39.50
2018-12-17T23:06:09.366Z,39.50
2018-12-17T23:08:39.727Z,40.52
2018-12-17T23:11:19.260Z,40.70
2018-12-17T23:13:58.690Z,41.60
2018-12-17T23:16:38.101Z,43.52
2018-12-17T23:19:05.134Z,43.48
2018-12-17T23:21:32.762Z,41.45
2018-12-17T23:24:00.222Z,46.08
2018-12-17T23:26:27.663Z,46.02
2018-12-17T23:28:55.093Z,45.33
2018-12-17T23:31:22.550Z,46.58
2018-12-17T23:33:49.996Z,45.58
2018-12-17T23:36:17.832Z,45.85
2018-12-17T23:38:45.277Z,44.20
2018-12-17T23:41:12.718Z,44.48
2018-12-17T23:43:40.172Z,44.08
2018-12-17T23:46:07.626Z,44.45
2018-12-17T23:48:35.374Z,45.85
2018-12-17T23:51:02.830Z,46.33
2018-12-17T23:53:30.274Z,44.85
2018-12-17T23:55:57.731Z,45.23
2018-12-17T23:58:25.174Z,45.97
